Ana Sayfa
METAR-TAF:

METAR-TAF

Havaalanları :

Uşak Havalimanı

Uşak, Türkiye

Enlem: 38-40N, Boylam: 029-25E, yükseklik: 919 m

Güncel hava durumu gözlemi

Rapor saat 11:50 UTC de 1 saat ve 8 dakika önce yapıldı.
Rüzgar batıdan 5 kt, güneybatı ve kuzey/kuzeybatı arasında değişken
Sıcaklık 31°C
Nem 24%
Basınç 1011 hPa
Görüş mesafesi 10 km veya daha fazla
4000 ft yükseklikte parçalı bulutlu

METAR: LTBO 201150Z 28005KT 230V340 9999 SCT040 31/08 Q1011

Saat: 15:58 (12:58 UTC)

Tahmin

Rapor saat 10:40 UTC de 2 saat ve 18 dakika önce yapıldı.
Ayın 20'si saat 12 UTC'den ayın 20'si saat 21 UTC'ye kadar geçerli Tahmin
Rüzgar değişken yönden 2 kt
Görüş mesafesi 10 km veya daha fazla
4000 ft yükseklikte parçalı bulutlu
10000 ft yükseklikte parçalı çok bulutlu

TAF: LTBO 201040Z 2012/2021 VRB02KT 9999 SCT040 BKN100

4.000'den fazla havaalanı için hava durumu gözlemleri ve tahminleri (METAR ve TAF raporları).

Kullanılabilir istasyonlar harita üzerinde sarı ve kırmızı noktalarla gösterilir.

İstasyonun adını görmek için fareyi noktanın üzerinde gezdirin.

Sonrasında hava gözlem ve tahminlerini görmek için tıklayın.

Haritayı değiştirmek için: yaklaştırmak için siyah artı işaretli yeşil düğmeye ve uzaklaştırmak için de eksi işaretli düğmeye hızla tıklayın; bitişik haritalar için yeşil okları kullanın.


METAR-TAF: